Time;durP1;ratioP1;P1;durP2;ratioP2;P2;SDS_P1;SDS_P2;PMS_P1;PMS_P2;Temp;Humidity;BMP_temperature;BMP_pressure;BME280_temperature;BME280_humidity;BME280_pressure;Samples;Min_cycle;Max_cycle;Signal;HPM_P1;HPM_P2
2022/03/18 00:00:17;;;;;;;8.75;5.75;;;;;;;12.55;42.34;103403.53;5050952;28;20051;-79
2022/03/18 00:02:45;;;;;;;8.05;5.70;;;;;;;12.51;41.84;103400.06;5052389;28;20053;-78
2022/03/18 00:05:12;;;;;;;8.85;5.53;;;;;;;12.49;41.98;103399.22;5049159;28;20505;-79
2022/03/18 00:07:44;;;;;;;7.88;5.25;;;;;;;12.49;42.13;103404.66;5034866;28;20051;-78
2022/03/18 00:10:17;;;;;;;11.18;6.10;;;;;;;12.49;42.56;103410.09;5051415;28;20083;-79
2022/03/18 00:12:46;;;;;;;9.88;5.90;;;;;;;12.47;42.21;103409.25;5052351;28;20053;-79
2022/03/18 00:15:14;;;;;;;8.43;5.80;;;;;;;12.48;42.44;103404.69;5046492;28;20064;-79
2022/03/18 00:17:41;;;;;;;8.80;5.82;;;;;;;12.47;41.99;103405.63;5044901;28;20053;-79
2022/03/18 00:20:10;;;;;;;9.82;5.93;;;;;;;12.47;41.92;103413.81;5045161;28;20052;-79
2022/03/18 00:22:39;;;;;;;8.88;6.03;;;;;;;12.46;42.01;103412.94;5033087;28;20551;-79
2022/03/18 00:25:06;;;;;;;10.13;5.72;;;;;;;12.44;41.99;103411.19;5036441;28;20557;-79
2022/03/18 00:27:35;;;;;;;10.13;5.78;;;;;;;12.43;41.82;103417.59;5051953;28;20106;-78
2022/03/18 00:30:03;;;;;;;10.35;5.97;;;;;;;12.44;41.82;103422.09;5050487;28;20045;-79
2022/03/18 00:32:30;;;;;;;8.10;5.80;;;;;;;12.40;42.20;103420.41;5051770;28;20044;-79
2022/03/18 00:34:57;;;;;;;7.93;5.45;;;;;;;12.38;41.94;103419.56;5048844;28;20049;-79
2022/03/18 00:37:24;;;;;;;9.15;5.65;;;;;;;12.36;42.17;103414.16;5025108;28;20512;-79
2022/03/18 00:39:50;;;;;;;10.13;5.90;;;;;;;12.35;42.10;103423.31;5049753;28;20076;-79
2022/03/18 00:42:17;;;;;;;8.68;5.88;;;;;;;12.33;42.18;103414.28;5050044;28;20053;-79
2022/03/18 00:44:44;;;;;;;9.90;6.10;;;;;;;12.32;42.16;103415.22;5051282;28;20048;-79
2022/03/18 00:52:42;;;;;;;10.02;5.80;;;;;;;12.25;42.17;103416.38;5051281;28;20045;-79
2022/03/18 00:55:09;;;;;;;8.90;5.55;;;;;;;12.24;42.14;103414.59;5049452;28;20045;-79
2022/03/18 00:57:36;;;;;;;11.50;6.15;;;;;;;12.24;42.15;103417.31;5050776;28;20512;-79
2022/03/18 01:00:07;;;;;;;9.35;6.47;;;;;;;12.25;42.29;103419.09;5049202;28;20049;-79
2022/03/18 01:02:34;;;;;;;8.90;5.78;;;;;;;12.22;41.93;103434.63;5046088;28;20041;-79
2022/03/18 01:05:01;;;;;;;9.30;5.63;;;;;;;12.22;42.12;103434.63;5048468;28;20106;-79
2022/03/18 01:07:29;;;;;;;8.75;5.85;;;;;;;12.20;42.42;103431.97;5051195;28;20044;-79
2022/03/18 01:09:56;;;;;;;11.10;6.15;;;;;;;12.19;42.51;103433.78;5050661;28;20573;-79
2022/03/18 01:12:23;;;;;;;8.02;6.22;;;;;;;12.17;42.37;103441.16;5047209;28;20056;-79
2022/03/18 01:14:51;;;;;;;10.18;6.45;;;;;;;12.17;42.27;103441.16;5044740;28;20094;-79
2022/03/18 01:17:18;;;;;;;8.43;5.72;;;;;;;12.15;42.26;103445.75;5032981;28;20080;-79
2022/03/18 01:19:45;;;;;;;9.18;6.10;;;;;;;12.14;42.16;103443.06;5032279;28;20049;-79
2022/03/18 01:22:12;;;;;;;9.15;6.03;;;;;;;12.13;42.19;103446.72;5046152;28;20092;-78
2022/03/18 01:24:39;;;;;;;10.45;6.30;;;;;;;12.13;42.14;103449.44;5035622;28;20526;-78
2022/03/18 01:27:06;;;;;;;8.43;5.82;;;;;;;12.10;42.15;103445.00;5050809;28;20049;-78
2022/03/18 01:29:33;;;;;;;8.60;5.95;;;;;;;12.09;41.96;103443.22;5049454;28;20037;-79
2022/03/18 01:32:01;;;;;;;9.32;6.32;;;;;;;12.07;42.23;103447.81;5039978;28;20049;-77
2022/03/18 01:34:28;;;;;;;8.27;5.55;;;;;;;12.07;42.13;103449.66;5049176;28;20045;-77
2022/03/18 01:36:54;;;;;;;9.40;5.82;;;;;;;12.05;42.04;103437.91;5023951;28;20475;-77
2022/03/18 01:39:22;;;;;;;9.35;5.60;;;;;;;12.03;42.28;103437.94;5048506;28;20072;-76
2022/03/18 01:41:51;;;;;;;7.63;5.57;;;;;;;12.04;42.18;103441.56;5040363;28;20053;-77
2022/03/18 01:44:19;;;;;;;8.55;5.88;;;;;;;12.01;42.14;103445.31;5048567;28;20041;-77
2022/03/18 01:46:46;;;;;;;9.00;5.85;;;;;;;11.99;42.14;103443.56;5049654;28;20048;-78
2022/03/18 01:49:14;;;;;;;9.10;6.03;;;;;;;11.98;42.20;103453.56;5026516;28;20036;-79
2022/03/18 01:51:41;;;;;;;8.75;5.88;;;;;;;11.97;42.10;103448.16;5050626;28;20098;-79
2022/03/18 01:56:55;;;;;;;8.35;5.60;;;;;;;11.93;42.20;103452.81;5049131;28;20082;-79
2022/03/18 01:59:22;;;;;;;7.85;5.55;;;;;;;11.92;41.93;103456.47;5047130;28;20044;-79
2022/03/18 02:01:50;;;;;;;9.38;5.60;;;;;;;11.91;42.27;103456.53;5042898;28;20049;-78
2022/03/18 02:04:17;;;;;;;9.38;5.55;;;;;;;11.89;42.12;103453.84;5048850;28;20040;-79
2022/03/18 02:06:44;;;;;;;9.65;5.97;;;;;;;11.88;42.00;103465.66;5052316;28;20053;-79
2022/03/18 02:09:11;;;;;;;10.00;5.85;;;;;;;11.86;41.97;103464.81;5036785;28;20487;-79
2022/03/18 02:11:39;;;;;;;9.70;5.43;;;;;;;11.85;42.12;103470.31;5045879;28;20453;-79
2022/03/18 02:14:06;;;;;;;9.43;5.93;;;;;;;11.81;41.96;103467.69;5047603;28;20083;-79
2022/03/18 02:16:33;;;;;;;7.68;5.75;;;;;;;11.81;41.81;103477.69;5048046;28;20079;-79
2022/03/18 02:19:00;;;;;;;8.07;5.28;;;;;;;11.79;41.97;103483.16;5043598;28;20060;-79
2022/03/18 02:21:28;;;;;;;9.88;5.72;;;;;;;11.77;42.04;103481.44;5050182;28;20049;-78
2022/03/18 02:23:57;;;;;;;8.05;5.65;;;;;;;11.76;42.24;103491.44;5043409;28;20413;-79
2022/03/18 02:26:24;;;;;;;9.10;5.68;;;;;;;11.73;42.25;103490.59;5048219;28;20045;-78
2022/03/18 02:28:51;;;;;;;7.85;5.20;;;;;;;11.71;42.30;103497.91;5048189;28;20056;-79
2022/03/18 02:31:19;;;;;;;9.30;5.72;;;;;;;11.72;42.13;103499.69;5046390;28;20049;-78
2022/03/18 02:33:46;;;;;;;7.85;5.72;;;;;;;11.69;42.31;103503.41;5038343;28;20052;-78
2022/03/18 02:36:13;;;;;;;8.40;5.40;;;;;;;11.68;42.05;103511.63;5043849;28;20049;-78
2022/03/18 02:38:41;;;;;;;8.98;5.25;;;;;;;11.65;42.14;103501.72;5047644;28;20051;-79
2022/03/18 02:41:11;;;;;;;7.93;5.13;;;;;;;11.65;42.28;103506.25;5049529;28;20063;-78
2022/03/18 02:43:39;;;;;;;10.48;5.63;;;;;;;11.63;41.99;103510.84;5040732;28;20447;-79
2022/03/18 02:46:09;;;;;;;7.13;5.07;;;;;;;11.60;42.46;103514.56;5048417;28;20053;-79
2022/03/18 02:48:36;;;;;;;7.47;5.47;;;;;;;11.60;42.04;103516.41;5029588;28;20107;-79
2022/03/18 02:51:04;;;;;;;7.18;4.88;;;;;;;11.56;42.11;103512.84;5032516;28;20045;-79
2022/03/18 02:53:30;;;;;;;8.75;5.25;;;;;;;11.54;41.86;103512.00;5030510;28;20056;-79
2022/03/18 02:55:57;;;;;;;7.78;5.43;;;;;;;11.53;42.22;103523.81;5048527;28;20508;-79
2022/03/18 02:58:24;;;;;;;9.52;5.60;;;;;;;11.52;42.06;103527.50;5049855;28;20049;-79
2022/03/18 03:00:51;;;;;;;7.32;4.95;;;;;;;11.50;41.90;103526.66;5057538;28;20053;-79
2022/03/18 03:03:18;;;;;;;8.48;4.93;;;;;;;11.48;41.87;103525.78;5034064;28;20292;-79
2022/03/18 03:08:31;;;;;;;9.75;5.38;;;;;;;11.41;42.12;103532.34;5044206;28;20055;-79
2022/03/18 03:10:58;;;;;;;7.65;5.30;;;;;;;11.40;41.89;103538.72;5050111;28;20056;-79
2022/03/18 03:13:25;;;;;;;7.78;5.35;;;;;;;11.38;41.88;103546.91;5029949;28;20123;-79
2022/03/18 03:15:52;;;;;;;7.35;5.18;;;;;;;11.36;41.69;103540.63;5045044;28;20053;-79
2022/03/18 03:18:20;;;;;;;8.05;5.07;;;;;;;11.35;42.23;103546.13;5047560;28;20056;-79
2022/03/18 03:20:48;;;;;;;7.53;5.13;;;;;;;11.32;41.83;103533.47;5050890;28;20562;-79
2022/03/18 03:23:16;;;;;;;10.40;5.47;;;;;;;11.30;41.90;103540.78;5034405;28;20049;-78
2022/03/18 03:25:43;;;;;;;8.25;5.18;;;;;;;11.28;41.99;103544.50;5052530;28;20495;-79
2022/03/18 03:28:09;;;;;;;9.63;5.40;;;;;;;11.25;41.75;103544.56;5051598;28;20056;-79
2022/03/18 03:30:37;;;;;;;7.82;5.00;;;;;;;11.21;41.85;103542.84;5052952;28;20048;-78
2022/03/18 03:33:04;;;;;;;9.43;4.85;;;;;;;11.19;41.76;103552.91;5043943;28;20402;-79
2022/03/18 03:35:31;;;;;;;6.93;4.13;;;;;;;11.15;41.76;103545.75;5008870;28;20042;-79
2022/03/18 03:37:58;;;;;;;6.95;3.80;;;;;;;11.12;42.02;103552.16;5031969;28;20048;-78
2022/03/18 03:40:25;;;;;;;6.50;3.83;;;;;;;11.10;42.05;103550.41;5051721;28;20405;-79
2022/03/18 03:42:53;;;;;;;7.03;4.25;;;;;;;11.07;41.97;103552.28;5049541;28;20080;-79
2022/03/18 03:45:19;;;;;;;8.48;4.40;;;;;;;11.09;41.92;103559.50;5055219;28;20119;-78
2022/03/18 03:47:47;;;;;;;6.38;3.90;;;;;;;11.07;42.21;103555.00;5051975;28;20045;-78
2022/03/18 03:50:15;;;;;;;5.82;3.80;;;;;;;11.07;42.05;103557.72;5051623;28;20140;-78
2022/03/18 03:52:42;;;;;;;7.90;4.35;;;;;;;11.08;42.03;103558.59;5053033;28;20450;-78
2022/03/18 03:55:12;;;;;;;7.18;3.95;;;;;;;11.09;42.25;103556.78;5050311;28;20052;-78
2022/03/18 03:57:42;;;;;;;8.23;4.13;;;;;;;11.10;42.49;103558.56;5052719;28;20045;-79
2022/03/18 04:00:10;;;;;;;5.90;3.78;;;;;;;11.10;42.14;103561.28;5051157;28;20052;-78
2022/03/18 04:02:37;;;;;;;7.18;4.07;;;;;;;11.08;42.27;103566.75;5039469;28;20107;-78
2022/03/18 04:05:07;;;;;;;7.28;4.22;;;;;;;11.09;42.20;103570.38;5044038;28;20045;-78
2022/03/18 04:07:35;;;;;;;8.55;4.25;;;;;;;11.08;42.05;103558.59;5052641;28;20047;-78
2022/03/18 04:10:04;;;;;;;7.05;4.38;;;;;;;11.09;42.06;103564.94;5040155;28;20049;-78
2022/03/18 04:12:33;;;;;;;7.32;3.88;;;;;;;11.06;42.22;103564.06;5033913;28;20049;-78
2022/03/18 04:15:01;;;;;;;7.22;4.03;;;;;;;11.05;42.07;103565.00;5049957;28;20049;-78
2022/03/18 04:17:36;;;;;;;6.50;3.78;;;;;;;11.09;42.61;103582.16;5047222;28;20416;-79
2022/03/18 04:20:05;;;;;;;7.82;4.07;;;;;;;11.05;42.07;103578.59;5038037;28;20045;-79
2022/03/18 04:22:31;;;;;;;6.10;4.00;;;;;;;11.04;42.00;103582.25;5040609;28;20267;-78
2022/03/18 04:24:59;;;;;;;6.90;4.50;;;;;;;11.04;42.08;103584.97;5048093;28;20048;-78
2022/03/18 04:27:25;;;;;;;7.13;4.13;;;;;;;11.04;42.07;103584.06;5052018;28;20052;-78
2022/03/18 04:29:53;;;;;;;7.35;4.00;;;;;;;11.03;41.79;103569.63;5049908;28;20475;-78
2022/03/18 04:32:20;;;;;;;5.45;3.40;;;;;;;11.02;41.92;103580.53;5051005;28;20437;-78
2022/03/18 04:34:46;;;;;;;6.47;3.88;;;;;;;11.00;41.84;103591.44;5042307;28;20045;-78
2022/03/18 04:37:13;;;;;;;6.05;3.55;;;;;;;10.99;42.19;103584.19;5052327;28;20057;-79
2022/03/18 04:39:40;;;;;;;6.25;3.55;;;;;;;10.97;41.76;103583.34;5028228;28;20103;-78
2022/03/18 04:42:08;;;;;;;6.88;3.67;;;;;;;10.98;42.17;103589.66;5051883;28;20049;-78
2022/03/18 04:44:35;;;;;;;6.90;3.67;;;;;;;10.95;42.26;103596.06;5017583;28;20385;-78
2022/03/18 04:47:02;;;;;;;7.38;3.78;;;;;;;10.93;42.24;103583.47;5044087;28;20106;-78
2022/03/18 04:49:28;;;;;;;7.55;3.58;;;;;;;10.92;42.06;103588.00;5021563;28;20074;-78
2022/03/18 04:51:55;;;;;;;6.22;3.78;;;;;;;10.92;41.88;103587.13;5051034;28;20056;-78
2022/03/18 04:54:22;;;;;;;7.22;4.10;;;;;;;10.90;42.15;103586.25;5032557;28;20114;-78
2022/03/18 04:59:34;;;;;;;5.75;3.85;;;;;;;10.85;42.19;103597.25;5045998;28;20056;-78
2022/03/18 05:02:01;;;;;;;6.50;3.70;;;;;;;10.83;42.07;103599.09;5051910;28;20049;-78
2022/03/18 05:04:28;;;;;;;7.70;3.70;;;;;;;10.82;41.76;103607.28;5048998;28;20400;-78
2022/03/18 05:06:55;;;;;;;6.00;3.92;;;;;;;10.81;41.94;103608.22;5036257;28;20097;-78
2022/03/18 05:09:23;;;;;;;9.40;4.20;;;;;;;10.80;41.78;103610.03;5046865;28;20044;-78
2022/03/18 05:11:50;;;;;;;6.38;3.55;;;;;;;10.78;42.00;103606.50;5032929;28;20053;-78
2022/03/18 05:14:17;;;;;;;6.38;3.50;;;;;;;10.77;42.04;103614.66;5048502;28;20041;-78
2022/03/18 05:16:44;;;;;;;5.55;3.85;;;;;;;10.75;41.83;103616.53;5050164;28;20045;-78
2022/03/18 05:19:11;;;;;;;8.27;4.05;;;;;;;10.75;41.85;103627.41;5050096;28;20045;-78
2022/03/18 05:21:39;;;;;;;6.50;3.92;;;;;;;10.73;41.69;103638.28;5032504;28;20071;-79
2022/03/18 05:24:06;;;;;;;8.18;4.20;;;;;;;10.70;41.82;103646.53;5049191;28;20634;-79
2022/03/18 05:26:33;;;;;;;7.53;4.25;;;;;;;10.68;41.84;103656.53;5049738;28;20053;-79
2022/03/18 05:29:01;;;;;;;5.97;3.78;;;;;;;10.66;41.76;103662.00;5046136;28;20102;-79
2022/03/18 05:31:28;;;;;;;6.65;4.18;;;;;;;10.64;42.04;103663.84;5045400;28;20056;-78
2022/03/18 05:33:54;;;;;;;6.85;4.20;;;;;;;10.63;41.98;103661.16;5047382;28;20493;-79
2022/03/18 05:36:21;;;;;;;6.82;3.88;;;;;;;10.60;41.85;103672.13;5046029;28;20057;-79
2022/03/18 05:38:48;;;;;;;6.85;4.25;;;;;;;10.58;41.86;103658.56;5048148;28;20044;-78
2022/03/18 05:41:15;;;;;;;8.13;4.13;;;;;;;10.56;41.85;103663.13;5050532;28;20424;-78
2022/03/18 05:43:42;;;;;;;7.03;4.20;;;;;;;10.53;41.69;103665.94;5029808;28;20045;-79
2022/03/18 05:46:11;;;;;;;7.03;4.10;;;;;;;10.51;41.74;103673.22;5049879;28;20048;-79
2022/03/18 05:48:38;;;;;;;6.97;4.10;;;;;;;10.48;41.82;103688.66;5048282;28;20174;-79
2022/03/18 05:51:05;;;;;;;7.13;3.97;;;;;;;10.46;42.11;103695.97;5032290;28;20053;-79
2022/03/18 05:53:31;;;;;;;7.10;4.00;;;;;;;10.44;41.86;103692.38;5050176;28;20386;-79
2022/03/18 05:58:45;;;;;;;7.63;4.20;;;;;;;10.41;42.09;103703.31;5049365;28;20228;-79
2022/03/18 06:01:12;;;;;;;6.93;3.97;;;;;;;10.41;42.11;103714.16;5049538;28;20056;-79
2022/03/18 06:03:39;;;;;;;7.47;4.00;;;;;;;10.40;41.89;103717.81;5031752;28;20045;-79
2022/03/18 06:06:06;;;;;;;7.95;4.43;;;;;;;10.41;42.21;103717.78;5052219;28;20045;-78
2022/03/18 06:14:04;;;;;;;7.07;3.78;;;;;;;10.38;42.07;103711.53;5046417;28;20496;-76
2022/03/18 06:16:31;;;;;;;7.47;3.83;;;;;;;10.39;42.18;103719.63;5038825;28;20045;-76
2022/03/18 06:18:58;;;;;;;6.18;3.92;;;;;;;10.40;42.40;103721.41;5048484;28;20114;-76
2022/03/18 06:21:25;;;;;;;7.63;4.18;;;;;;;10.40;42.22;103716.00;5049347;28;20087;-76
2022/03/18 06:23:52;;;;;;;8.35;4.60;;;;;;;10.41;42.32;103719.59;5049201;28;20049;-76
2022/03/18 06:26:19;;;;;;;5.68;3.92;;;;;;;10.42;42.11;103729.53;5045137;28;20044;-76
2022/03/18 06:28:46;;;;;;;6.38;3.72;;;;;;;10.42;42.10;103738.59;5030188;28;20048;-76
2022/03/18 06:31:34;;;;;;;7.15;4.25;;;;;;;10.44;42.43;103747.59;5049445;28;20049;-77
2022/03/18 06:34:01;;;;;;;7.65;4.15;;;;;;;10.43;42.37;103750.34;5048163;28;20521;-76
2022/03/18 06:36:28;;;;;;;8.30;4.13;;;;;;;10.46;42.48;103751.16;5031691;28;20103;-77
2022/03/18 06:38:55;;;;;;;7.75;4.40;;;;;;;10.48;42.55;103748.41;5048001;28;20049;-77
2022/03/18 06:41:22;;;;;;;6.82;4.47;;;;;;;10.49;42.67;103751.13;5031991;28;20053;-77
2022/03/18 06:43:50;;;;;;;7.53;4.30;;;;;;;10.53;42.86;103743.81;5047444;28;20055;-77
2022/03/18 06:46:17;;;;;;;7.03;4.53;;;;;;;10.56;43.16;103746.44;5048726;28;20577;-77
2022/03/18 06:48:44;;;;;;;9.65;4.53;;;;;;;10.62;43.47;103739.06;5056949;28;20124;-77
2022/03/18 06:51:11;;;;;;;6.57;4.65;;;;;;;10.70;44.21;103747.06;5058367;28;20105;-77
2022/03/18 06:53:38;;;;;;;7.30;4.30;;;;;;;10.81;44.31;103755.88;5036183;28;20053;-77
2022/03/18 06:56:05;;;;;;;8.43;4.28;;;;;;;10.94;45.06;103765.56;5043505;28;20045;-78
2022/03/18 06:58:33;;;;;;;8.98;4.80;;;;;;;11.12;45.34;103768.81;5043368;28;20057;-78
2022/03/18 07:01:00;;;;;;;8.27;4.45;;;;;;;11.28;46.03;103754.78;5050206;28;20822;-79
2022/03/18 07:03:27;;;;;;;5.85;4.25;;;;;;;11.51;46.24;103766.97;5051775;28;20092;-79
2022/03/18 07:05:54;;;;;;;7.32;4.65;;;;;;;11.75;46.21;103767.28;5051892;28;20097;-79
2022/03/18 07:08:21;;;;;;;10.65;5.10;;;;;;;12.00;46.29;103772.97;5047106;28;20059;-79
2022/03/18 07:10:48;;;;;;;6.05;4.18;;;;;;;12.25;46.16;103770.50;5032072;28;20389;-80
2022/03/18 07:13:16;;;;;;;8.32;4.07;;;;;;;12.50;45.95;103766.16;5040611;28;20492;-80
2022/03/18 07:15:43;;;;;;;7.57;4.35;;;;;;;12.75;45.59;103781.78;5054839;28;20056;-79
2022/03/18 07:18:10;;;;;;;8.43;4.28;;;;;;;13.02;45.85;103777.31;5051452;28;20073;-79
2022/03/18 07:20:38;;;;;;;7.80;4.35;;;;;;;13.29;45.56;103774.66;5053962;28;20095;-79
2022/03/18 07:23:15;;;;;;;7.80;4.55;;;;;;;13.60;44.84;103762.75;5036433;28;20098;-78
2022/03/18 07:25:48;;;;;;;11.15;4.93;;;;;;;13.91;44.46;103770.81;5047750;28;20045;-79
2022/03/18 07:28:18;;;;;;;11.10;4.55;;;;;;;14.18;45.02;103775.28;5051348;28;20512;-78
2022/03/18 07:30:45;;;;;;;12.45;4.57;;;;;;;14.48;44.29;103767.88;5034656;28;20052;-78
2022/03/18 07:33:12;;;;;;;8.77;4.72;;;;;;;14.76;44.04;103762.25;5047941;28;20053;-76
2022/03/18 07:35:39;;;;;;;9.48;3.67;;;;;;;15.02;43.78;103759.41;5049356;28;20047;-77
2022/03/18 07:38:09;;;;;;;8.68;3.88;;;;;;;15.27;42.98;103761.16;5027557;28;20452;-77
2022/03/18 07:40:39;;;;;;;12.30;4.57;;;;;;;15.51;41.37;103762.88;5046470;28;20053;-77
2022/03/18 07:43:08;;;;;;;6.15;3.45;;;;;;;15.69;41.78;103764.91;5048235;28;20056;-81
2022/03/18 07:45:36;;;;;;;6.32;2.85;;;;;;;15.87;41.67;103761.38;5042364;28;20057;-77
2022/03/18 07:48:08;;;;;;;5.72;3.30;;;;;;;16.05;40.51;103765.19;5047806;28;20084;-78
2022/03/18 07:50:37;;;;;;;5.80;3.33;;;;;;;16.18;40.90;103771.88;5033882;28;20057;-78
2022/03/18 07:53:07;;;;;;;7.20;2.83;;;;;;;16.33;40.58;103776.69;5046386;28;20049;-78
2022/03/18 07:55:37;;;;;;;4.57;2.58;;;;;;;16.47;40.43;103766.97;5041515;28;20041;-77
2022/03/18 07:58:06;;;;;;;6.72;3.03;;;;;;;16.58;39.98;103767.34;5047578;28;20562;-78
2022/03/18 08:00:34;;;;;;;5.18;3.28;;;;;;;16.68;40.26;103768.75;5031118;28;20047;-76
2022/03/18 08:03:02;;;;;;;4.90;3.22;;;;;;;16.78;39.63;103769.22;5047753;28;20049;-77
2022/03/18 08:05:30;;;;;;;5.63;3.03;;;;;;;16.86;39.72;103754.16;5043475;28;20480;-77
2022/03/18 08:07:57;;;;;;;4.85;2.85;;;;;;;16.94;39.23;103757.44;5047735;28;20052;-78
2022/03/18 08:10:24;;;;;;;4.93;2.65;;;;;;;17.01;38.91;103766.28;5049994;28;20057;-78
2022/03/18 08:12:51;;;;;;;4.82;2.67;;;;;;;17.05;37.99;103768.78;5030707;28;20053;-78
2022/03/18 08:15:20;;;;;;;5.25;2.53;;;;;;;17.08;37.64;103765.91;5044286;28;20491;-76
2022/03/18 08:17:51;;;;;;;6.50;2.60;;;;;;;17.04;36.73;103764.28;5053762;28;20059;-78
2022/03/18 08:20:20;;;;;;;6.15;2.13;;;;;;;17.00;37.00;103768.13;5031117;28;20049;-77
2022/03/18 08:22:49;;;;;;;5.15;2.10;;;;;;;16.96;36.44;103779.34;5060002;28;20463;-77
2022/03/18 08:25:16;;;;;;;4.30;2.22;;;;;;;16.88;36.35;103784.28;5035598;28;20132;-77
2022/03/18 08:27:43;;;;;;;3.97;2.40;;;;;;;16.80;36.33;103783.75;5032932;28;20049;-77
2022/03/18 08:30:11;;;;;;;5.18;2.30;;;;;;;16.72;35.98;103793.22;5053857;28;20045;-77
2022/03/18 08:32:39;;;;;;;4.03;2.25;;;;;;;16.67;36.16;103791.66;5046989;28;20044;-76
2022/03/18 08:35:07;;;;;;;8.73;2.45;;;;;;;16.62;36.10;103796.47;5048428;28;20098;-76
2022/03/18 08:40:21;;;;;;;5.95;2.40;;;;;;;16.50;35.75;103800.63;5051105;28;20086;-76
2022/03/18 08:42:48;;;;;;;4.57;2.20;;;;;;;16.48;36.06;103801.63;5031620;28;20063;-76
2022/03/18 08:45:16;;;;;;;4.40;2.28;;;;;;;16.46;35.82;103800.84;5049298;28;20044;-77
2022/03/18 08:47:43;;;;;;;3.85;2.30;;;;;;;16.45;35.77;103813.66;5035173;28;20102;-78
2022/03/18 08:50:11;;;;;;;5.55;2.25;;;;;;;16.43;35.68;103809.19;5050681;28;20049;-79
2022/03/18 08:52:39;;;;;;;3.53;1.88;;;;;;;16.40;35.33;103821.16;5052318;28;20048;-78
2022/03/18 08:55:07;;;;;;;5.40;2.40;;;;;;;16.37;36.04;103818.59;5036292;28;20088;-78
2022/03/18 08:57:37;;;;;;;6.28;2.30;;;;;;;16.35;35.81;103824.13;5055517;28;20459;-77
2022/03/18 09:00:07;;;;;;;4.88;2.35;;;;;;;16.36;34.86;103817.69;5047230;28;20049;-76
2022/03/18 09:02:36;;;;;;;4.32;1.63;;;;;;;16.35;35.04;103828.72;5063226;28;20056;-77
2022/03/18 09:05:05;;;;;;;4.05;1.58;;;;;;;16.34;34.93;103826.94;5050045;28;20049;-76
2022/03/18 09:07:32;;;;;;;4.28;1.60;;;;;;;16.29;34.59;103827.16;5050200;28;20045;-77
2022/03/18 09:10:00;;;;;;;3.78;1.70;;;;;;;16.28;34.95;103828.09;5023093;28;20084;-77
2022/03/18 09:12:27;;;;;;;4.00;1.90;;;;;;;16.27;34.33;103826.31;5045882;28;20102;-77
2022/03/18 09:14:54;;;;;;;3.33;1.60;;;;;;;16.26;34.01;103843.72;5016128;28;20047;-78
2022/03/18 09:17:21;;;;;;;6.32;1.63;;;;;;;16.23;33.75;103849.31;5031537;28;20463;-78
2022/03/18 09:19:48;;;;;;;3.35;1.38;;;;;;;16.23;34.13;103843.84;5030775;28;20053;-78
2022/03/18 09:22:16;;;;;;;2.90;1.33;;;;;;;16.20;34.00;103844.00;5039936;28;20146;-77
2022/03/18 09:24:45;;;;;;;3.70;1.60;;;;;;;16.19;32.70;103839.47;5053198;28;20518;-77
2022/03/18 09:27:14;;;;;;;3.20;1.30;;;;;;;16.18;33.19;103848.66;5047125;28;20138;-77
2022/03/18 09:29:41;;;;;;;3.05;1.27;;;;;;;16.19;32.75;103855.91;5049278;28;20049;-77
2022/03/18 09:32:09;;;;;;;3.30;1.30;;;;;;;16.15;32.33;103850.63;5023417;28;20119;-77
2022/03/18 09:34:36;;;;;;;2.67;1.60;;;;;;;16.17;32.63;103863.31;5046437;28;20045;-78
2022/03/18 09:37:03;;;;;;;2.85;1.20;;;;;;;16.11;32.96;103868.16;5049861;28;20064;-79
2022/03/18 09:39:30;;;;;;;3.25;1.20;;;;;;;16.11;33.18;103863.56;5049200;28;20055;-79
2022/03/18 09:42:02;;;;;;;6.00;2.42;;;;;;;16.10;33.16;103867.28;5046251;28;20049;-73
2022/03/18 09:44:36;;;;;;;3.97;1.73;;;;;;;16.17;32.93;103862.41;5049854;28;20497;-73
2022/03/18 09:47:08;;;;;;;3.50;1.90;;;;;;;16.19;33.01;103869.63;5047887;28;20048;-73
2022/03/18 09:49:36;;;;;;;4.65;1.75;;;;;;;16.23;33.20;103868.53;5047930;28;20064;-72
2022/03/18 09:52:04;;;;;;;3.47;1.77;;;;;;;16.26;33.34;103879.38;5049336;28;20076;-73
2022/03/18 09:54:34;;;;;;;3.33;1.40;;;;;;;16.31;34.02;103879.16;5048470;28;20041;-73
2022/03/18 09:57:02;;;;;;;4.45;2.03;;;;;;;16.39;33.61;103876.97;5049405;28;20053;-73
2022/03/18 09:59:29;;;;;;;5.13;1.88;;;;;;;16.44;32.93;103874.94;5052530;28;20049;-73
2022/03/18 10:02:34;;;;;;;2.95;1.20;;;;;;;16.52;32.38;103882.84;5049313;28;20057;-72
2022/03/18 10:05:06;;;;;;;2.83;1.40;;;;;;;16.52;31.27;103886.47;5046090;28;20068;-73
2022/03/18 10:07:33;;;;;;;3.67;1.55;;;;;;;16.54;31.99;103880.91;5049918;28;20106;-74
2022/03/18 10:10:15;;;;;;;4.13;1.50;;;;;;;16.58;29.92;103883.44;5047612;28;20554;-74
2022/03/18 10:12:45;;;;;;;2.78;1.20;;;;;;;16.61;31.23;103891.59;5049281;28;20068;-74
2022/03/18 10:15:16;;;;;;;3.13;1.40;;;;;;;16.61;31.17;103887.94;5045950;28;20045;-74
2022/03/18 10:17:43;;;;;;;2.15;1.40;;;;;;;16.61;30.96;103890.69;5044427;28;20474;-74
2022/03/18 10:20:38;;;;;;;3.60;1.55;;;;;;;16.63;29.71;103895.16;5047775;28;20055;-74
2022/03/18 10:23:21;;;;;;;;;;;;;;;16.35;30.29;103878.09;5045472;28;20049;-74
2022/03/18 10:25:56;;;;;;;2.60;1.30;;;;;;;16.61;30.98;103887.94;5047355;28;19928;-74
2022/03/18 10:28:39;;;;;;;2.83;1.20;;;;;;;16.69;31.08;103888.50;5045860;28;20083;-74
2022/03/18 10:31:15;;;;;;;2.60;1.30;;;;;;;16.76;31.02;103884.53;5049901;28;20106;-75
2022/03/18 10:39:31;;;;;;;4.13;1.70;;;;;;;16.87;30.82;103882.19;5047676;28;20103;-73
2022/03/18 10:42:01;;;;;;;2.97;1.40;;;;;;;16.93;31.11;103876.41;5049129;28;20075;-74
2022/03/18 10:44:41;;;;;;;2.40;1.50;;;;;;;16.95;30.75;103882.75;5013146;28;20104;-79
2022/03/18 10:47:08;;;;;;;4.30;2.38;;;;;;;16.97;30.65;103878.03;5042826;28;20279;-79
2022/03/18 10:49:35;;;;;;;4.15;2.10;;;;;;;17.03;30.99;103871.41;5053838;28;20132;-77
2022/03/18 10:52:10;;;;;;;3.78;2.30;;;;;;;17.11;30.13;103874.69;5039602;28;20486;-77
2022/03/18 10:54:38;;;;;;;4.07;2.03;;;;;;;17.11;30.98;103883.81;5049948;28;20415;-77
2022/03/18 10:57:04;;;;;;;3.70;2.25;;;;;;;17.19;31.12;103879.81;5048463;28;20492;-77
2022/03/18 10:59:32;;;;;;;5.25;2.58;;;;;;;17.23;30.71;103885.06;5048008;28;20045;-78
2022/03/18 11:02:00;;;;;;;3.97;2.00;;;;;;;17.27;31.15;103883.09;5049703;28;20091;-76
2022/03/18 11:04:28;;;;;;;4.32;2.38;;;;;;;17.31;30.67;103876.47;5041614;28;20048;-78
2022/03/18 11:12:31;;;;;;;4.15;2.20;;;;;;;17.42;30.26;103890.59;5047441;28;20331;-78
2022/03/18 11:15:01;;;;;;;4.18;1.80;;;;;;;17.46;29.85;103881.22;5024625;28;20049;-78
2022/03/18 11:17:29;;;;;;;3.17;1.75;;;;;;;17.49;29.07;103882.00;5049309;28;20049;-78
2022/03/18 11:19:59;;;;;;;3.00;1.40;;;;;;;17.52;29.24;103889.22;5044960;28;20053;-76
2022/03/18 11:22:26;;;;;;;3.55;1.45;;;;;;;17.54;29.32;103879.03;5048022;28;20053;-76
2022/03/18 11:24:55;;;;;;;4.13;1.70;;;;;;;17.60;29.68;103891.59;5046323;28;20482;-76
2022/03/18 11:27:22;;;;;;;3.28;1.52;;;;;;;17.57;29.29;103887.13;5040939;28;20041;-77
2022/03/18 11:30:25;;;;;;;4.35;1.67;;;;;;;17.63;29.27;103877.72;5045416;28;20091;-77
2022/03/18 11:33:22;;;;;;;2.30;1.58;;;;;;;17.59;28.92;103881.56;5047555;28;20545;-78
2022/03/18 11:35:57;;;;;;;2.90;1.33;;;;;;;17.64;29.37;103874.00;5036629;28;20053;-77
2022/03/18 11:38:28;;;;;;;4.53;1.80;;;;;;;17.72;29.13;103880.91;5027976;28;20054;-78
2022/03/18 11:40:59;;;;;;;3.58;1.50;;;;;;;17.74;29.23;103872.59;5031921;28;20041;-77
2022/03/18 11:43:32;;;;;;;2.42;1.70;;;;;;;17.73;29.26;103868.06;5051787;28;20132;-78
2022/03/18 11:46:13;;;;;;;3.58;1.67;;;;;;;17.79;28.37;103876.88;5050466;28;20072;-78
2022/03/18 11:48:57;;;;;;;3.30;1.67;;;;;;;17.80;26.67;103873.16;5042044;28;20048;-76
2022/03/18 11:51:31;;;;;;;3.42;1.65;;;;;;;17.83;26.95;103877.63;5038400;28;20072;-78
2022/03/18 11:54:13;;;;;;;3.42;1.73;;;;;;;17.85;26.77;103872.97;5051514;28;20051;-78
2022/03/18 11:56:40;;;;;;;3.15;1.60;;;;;;;17.83;27.83;103870.28;5045067;28;20049;-77
2022/03/18 11:59:28;;;;;;;4.00;1.73;;;;;;;17.83;25.96;103867.53;5050851;28;20068;-77
2022/03/18 12:01:55;;;;;;;2.97;1.42;;;;;;;17.84;27.46;103862.94;5050306;28;20056;-78
2022/03/18 12:04:36;;;;;;;2.80;1.25;;;;;;;17.87;25.68;103858.16;5049102;28;20111;-78
2022/03/18 12:07:23;;;;;;;2.70;1.30;;;;;;;17.90;26.88;103865.38;5041090;28;20041;-77